createdAt,value
2023-03-12T00:00:00.299Z,0
2023-03-12T00:05:00.301Z,0
2023-03-12T00:10:00.323Z,0
2023-03-12T00:15:00.313Z,0
2023-03-12T00:20:00.318Z,0
2023-03-12T00:25:00.306Z,0
2023-03-12T00:30:00.304Z,0
2023-03-12T00:35:00.306Z,0
2023-03-12T00:40:00.328Z,0
2023-03-12T00:45:00.357Z,0
2023-03-12T00:50:00.314Z,0
2023-03-12T00:55:00.306Z,0
2023-03-12T01:00:00.289Z,0
2023-03-12T01:05:00.311Z,0
2023-03-12T01:10:00.331Z,0
2023-03-12T01:15:00.312Z,0
2023-03-12T01:20:00.371Z,0
2023-03-12T01:25:00.313Z,0
2023-03-12T01:30:00.308Z,0
2023-03-12T01:35:00.347Z,0
2023-03-12T01:40:00.356Z,0
2023-03-12T01:45:00.308Z,0
2023-03-12T01:50:00.320Z,0
2023-03-12T01:55:00.307Z,0
2023-03-12T02:00:00.298Z,0
2023-03-12T02:05:00.321Z,0
2023-03-12T02:10:00.302Z,0
2023-03-12T02:15:00.323Z,0
2023-03-12T02:20:00.299Z,0
2023-03-12T02:25:00.301Z,0
2023-03-12T02:30:00.314Z,0
2023-03-12T02:35:00.348Z,0
2023-03-12T02:40:00.303Z,0
2023-03-12T02:45:00.302Z,0
2023-03-12T02:50:00.313Z,0
2023-03-12T02:55:00.294Z,0
2023-03-12T03:00:00.316Z,0
2023-03-12T03:05:00.310Z,0
2023-03-12T03:10:00.290Z,0
2023-03-12T03:15:00.296Z,0
2023-03-12T03:20:00.349Z,0
2023-03-12T03:25:00.308Z,0
2023-03-12T03:30:00.312Z,0
2023-03-12T03:35:00.307Z,0
2023-03-12T03:40:00.319Z,0
2023-03-12T03:45:00.307Z,0
2023-03-12T03:50:00.297Z,0
2023-03-12T03:55:00.298Z,0
2023-03-12T04:00:03.360Z,0
2023-03-12T04:05:00.314Z,0
2023-03-12T04:10:00.297Z,0
2023-03-12T04:15:00.311Z,0
2023-03-12T04:20:00.300Z,0
2023-03-12T04:25:00.310Z,0
2023-03-12T04:30:00.326Z,0
2023-03-12T04:35:00.279Z,0
2023-03-12T04:40:00.310Z,0
2023-03-12T04:45:00.543Z,0
2023-03-12T04:50:00.312Z,0
2023-03-12T04:55:00.316Z,0
2023-03-12T05:00:00.305Z,0
2023-03-12T05:05:00.286Z,0
2023-03-12T05:10:00.306Z,0
2023-03-12T05:15:00.321Z,0
2023-03-12T05:20:00.332Z,0
2023-03-12T05:25:00.332Z,0
2023-03-12T05:30:00.296Z,0
2023-03-12T05:35:00.337Z,0
2023-03-12T05:40:00.303Z,0
2023-03-12T05:45:00.319Z,17
2023-03-12T05:50:00.309Z,38
2023-03-12T05:55:00.317Z,63
2023-03-12T06:00:00.311Z,105
2023-03-12T06:05:00.308Z,146
2023-03-12T06:10:00.320Z,192
2023-03-12T06:15:00.294Z,372
2023-03-12T06:20:00.299Z,400
2023-03-12T06:25:00.295Z,400
2023-03-12T06:30:00.299Z,503
2023-03-12T06:35:00.298Z,503
2023-03-12T06:40:00.297Z,503
2023-03-12T06:45:00.313Z,503
2023-03-12T06:50:00.308Z,502
2023-03-12T06:55:00.302Z,721
2023-03-12T07:00:00.313Z,721
2023-03-12T07:05:00.352Z,912
2023-03-12T07:10:00.324Z,810
2023-03-12T07:15:00.324Z,870
2023-03-12T07:20:00.301Z,1724
2023-03-12T07:25:00.422Z,1950
2023-03-12T07:30:00.318Z,2194
2023-03-12T07:35:00.374Z,2186
2023-03-12T07:40:00.439Z,1935
2023-03-12T07:45:00.393Z,2175
2023-03-12T07:55:00.443Z,1938
2023-03-12T08:00:00.363Z,1710
2023-03-12T08:05:00.404Z,1710
2023-03-12T08:10:00.371Z,1060
2023-03-12T08:15:00.306Z,1197
2023-03-12T08:20:00.315Z,1365
2023-03-12T08:25:00.314Z,1536
2023-03-12T08:30:00.300Z,1209
2023-03-12T08:35:00.318Z,1536
2023-03-12T08:40:00.324Z,1732
2023-03-12T08:45:00.295Z,1984
2023-03-12T08:50:00.306Z,1983
2023-03-12T08:55:00.308Z,1983
2023-03-12T09:00:00.339Z,2786
2023-03-12T09:05:00.305Z,2252
2023-03-12T09:10:00.320Z,1982
2023-03-12T09:15:03.898Z,3234
2023-03-12T09:20:00.350Z,2848
2023-03-12T09:25:00.313Z,2189
2023-03-12T09:30:01.317Z,2182
2023-03-12T09:35:00.327Z,2420
2023-03-12T09:40:00.318Z,2818
2023-03-12T09:45:00.328Z,6934
2023-03-12T09:50:00.341Z,4702
2023-03-12T09:55:00.505Z,6888
2023-03-12T10:00:00.355Z,8588
2023-03-12T10:05:00.620Z,7572
2023-03-12T10:10:00.333Z,6653
2023-03-12T10:15:00.407Z,3901
2023-03-12T10:20:00.334Z,4436
2023-03-12T10:25:00.315Z,3881
2023-03-12T10:30:01.853Z,4484
2023-03-12T10:35:00.349Z,4484
2023-03-12T10:40:00.349Z,4549
2023-03-12T10:45:00.357Z,4549
2023-03-12T10:50:00.419Z,4575
2023-03-12T10:55:00.446Z,4966
2023-03-12T11:00:00.306Z,5034
2023-03-12T11:05:00.315Z,5805
2023-03-12T11:10:00.312Z,4513
2023-03-12T11:15:00.461Z,5752
2023-03-12T11:20:00.390Z,7698
2023-03-12T11:25:00.375Z,10000
2023-03-12T11:30:00.409Z,5401
2023-03-12T11:35:00.411Z,6097
2023-03-12T11:40:00.345Z,5368
2023-03-12T11:45:00.307Z,4831
2023-03-12T11:50:00.403Z,3495
2023-03-12T11:55:00.372Z,3495
2023-03-12T12:00:00.341Z,3085
2023-03-12T12:05:00.317Z,4427
2023-03-12T12:10:00.305Z,2695
2023-03-12T12:15:00.311Z,1848
2023-03-12T12:20:00.297Z,2098
2023-03-12T12:25:00.308Z,2098
2023-03-12T12:30:00.359Z,2669
2023-03-12T12:35:00.333Z,2078
2023-03-12T12:40:00.301Z,2001
2023-03-12T12:45:00.441Z,2335
2023-03-12T12:50:00.311Z,2053
2023-03-12T12:55:00.378Z,3026
2023-03-12T13:00:00.333Z,2645
2023-03-12T13:05:00.364Z,2985
2023-03-12T13:10:00.343Z,3534
2023-03-12T13:15:00.321Z,3056
2023-03-12T13:20:01.623Z,4515
2023-03-12T13:25:00.337Z,3434
2023-03-12T13:30:00.317Z,3434
2023-03-12T13:35:00.425Z,3434
2023-03-12T13:40:00.314Z,3434
2023-03-12T13:45:00.333Z,3434
2023-03-12T13:50:00.361Z,3434
2023-03-12T13:55:00.327Z,3434
2023-03-12T14:00:00.362Z,2658
2023-03-12T14:05:00.402Z,4011
2023-03-12T14:10:00.354Z,5001
2023-03-12T14:15:00.346Z,5001
2023-03-12T14:20:00.354Z,12117
2023-03-12T14:25:00.458Z,14498
2023-03-12T14:30:00.330Z,23906
2023-03-12T14:35:00.335Z,20716
2023-03-12T14:40:00.419Z,18557
2023-03-12T14:45:00.363Z,16297
2023-03-12T14:50:00.316Z,34986
2023-03-12T14:55:00.401Z,9003
2023-03-12T15:00:00.433Z,9164
2023-03-12T15:05:00.443Z,11181
2023-03-12T15:10:00.436Z,8183
2023-03-12T15:15:00.374Z,8198
2023-03-12T15:20:00.327Z,6414
2023-03-12T15:25:00.387Z,5625
2023-03-12T15:30:00.386Z,3056
2023-03-12T15:35:00.490Z,2384
2023-03-12T15:40:00.463Z,2698
2023-03-12T15:45:00.322Z,3053
2023-03-12T15:50:00.297Z,2715
2023-03-12T15:55:00.327Z,6978
2023-03-12T16:00:00.312Z,4288
2023-03-12T16:05:00.324Z,2064
2023-03-12T16:10:00.303Z,1629
2023-03-12T16:15:00.321Z,1832
2023-03-12T16:20:00.293Z,2666
2023-03-12T16:25:00.304Z,2106
2023-03-12T16:30:00.310Z,1638
2023-03-12T16:35:00.301Z,1638
2023-03-12T16:40:00.318Z,1443
2023-03-12T16:45:00.307Z,1443
2023-03-12T16:50:00.292Z,1443
2023-03-12T16:55:00.345Z,1138
2023-03-12T17:00:00.344Z,795
2023-03-12T17:05:00.303Z,470
2023-03-12T17:10:00.321Z,338
2023-03-12T17:15:00.318Z,287
2023-03-12T17:20:00.552Z,206
2023-03-12T17:25:00.335Z,148
2023-03-12T17:30:00.360Z,141
2023-03-12T17:35:00.310Z,84
2023-03-12T17:40:00.310Z,51
2023-03-12T17:45:00.305Z,44
2023-03-12T17:50:00.310Z,23
2023-03-12T17:55:00.295Z,9
2023-03-12T18:00:00.315Z,9
2023-03-12T18:05:00.506Z,9
2023-03-12T18:10:00.324Z,2
2023-03-12T18:15:00.314Z,2
2023-03-12T18:20:00.379Z,2
2023-03-12T18:25:00.331Z,2
2023-03-12T18:30:00.314Z,2
2023-03-12T18:35:00.323Z,2
2023-03-12T18:40:00.335Z,2
2023-03-12T18:45:00.332Z,0
2023-03-12T18:50:00.306Z,0
2023-03-12T18:55:00.317Z,0
2023-03-12T19:00:00.342Z,0
2023-03-12T19:05:00.315Z,0
2023-03-12T19:10:00.301Z,0
2023-03-12T19:15:00.316Z,0
2023-03-12T19:20:01.799Z,0
2023-03-12T19:25:00.297Z,0
2023-03-12T19:30:00.347Z,0
2023-03-12T19:35:00.324Z,0
2023-03-12T19:40:00.341Z,0
2023-03-12T19:45:00.297Z,0
2023-03-12T19:50:00.322Z,0
2023-03-12T19:55:05.479Z,0
2023-03-12T20:00:00.311Z,0
2023-03-12T20:05:00.294Z,0
2023-03-12T20:10:00.300Z,0
2023-03-12T20:15:00.295Z,0
2023-03-12T20:20:00.306Z,0
2023-03-12T20:25:00.285Z,0
2023-03-12T20:30:00.299Z,0
2023-03-12T20:35:00.311Z,0
2023-03-12T20:40:00.319Z,0
2023-03-12T20:45:00.298Z,0
2023-03-12T20:50:00.310Z,0
2023-03-12T20:55:00.316Z,0
2023-03-12T21:00:00.381Z,0
2023-03-12T21:05:00.299Z,0
2023-03-12T21:10:00.297Z,0
2023-03-12T21:15:00.305Z,0
2023-03-12T21:20:00.310Z,0
2023-03-12T21:25:00.303Z,0
2023-03-12T21:30:00.310Z,0
2023-03-12T21:35:00.306Z,0
2023-03-12T21:40:00.307Z,0
2023-03-12T21:45:00.334Z,0
2023-03-12T21:50:00.306Z,0
2023-03-12T21:55:00.319Z,0
2023-03-12T22:00:00.314Z,0
2023-03-12T22:05:00.329Z,0
2023-03-12T22:10:00.307Z,0
2023-03-12T22:15:00.299Z,0
2023-03-12T22:20:00.306Z,0
2023-03-12T22:25:00.305Z,0
2023-03-12T22:30:00.302Z,0
2023-03-12T22:35:00.321Z,0
2023-03-12T22:40:00.306Z,0
2023-03-12T22:45:00.300Z,0
2023-03-12T22:50:00.311Z,0
2023-03-12T22:55:00.299Z,0
2023-03-12T23:00:00.298Z,0
2023-03-12T23:05:00.417Z,0
2023-03-12T23:10:00.298Z,0
2023-03-12T23:15:00.313Z,0
2023-03-12T23:20:00.302Z,0
2023-03-12T23:25:00.305Z,0
2023-03-12T23:30:00.307Z,0
2023-03-12T23:35:00.307Z,0
2023-03-12T23:40:00.298Z,0
2023-03-12T23:45:00.314Z,0
2023-03-12T23:50:00.309Z,0
2023-03-12T23:55:00.340Z,0
